Time;durP1;ratioP1;P1;durP2;ratioP2;P2;SDS_P1;SDS_P2;PMS_P1;PMS_P2;Temp;Humidity;BMP_temperature;BMP_pressure;BME280_temperature;BME280_humidity;BME280_pressure;Samples;Min_cycle;Max_cycle;Signal;HPM_P1;HPM_P2
2021/07/17 00:02:22;;;;;;;44.42;30.98;;;;;;;15.73;85.71;96204.59;4992387;28;20648;-77
2021/07/17 00:04:47;;;;;;;45.30;32.00;;;;;;;15.78;85.46;96209.31;4992910;28;20200;-78
2021/07/17 00:07:13;;;;;;;45.90;32.80;;;;;;;15.67;86.15;96205.25;4994212;28;20266;-77
2021/07/17 00:09:38;;;;;;;53.85;33.83;;;;;;;15.70;85.61;96198.84;5009240;28;20400;-76
2021/07/17 00:12:04;;;;;;;47.85;31.33;;;;;;;15.83;85.50;96207.06;4992762;28;20187;-78
2021/07/17 00:14:29;;;;;;;46.65;32.38;;;;;;;15.77;85.62;96200.66;4995001;28;20265;-78
2021/07/17 00:16:55;;;;;;;51.78;34.70;;;;;;;15.74;85.75;96203.63;4997753;28;20187;-77
2021/07/17 00:19:20;;;;;;;46.80;33.88;;;;;;;15.71;85.79;96196.06;4996667;28;20211;-79
2021/07/17 00:21:45;;;;;;;53.67;34.28;;;;;;;15.75;86.03;96201.81;4979365;28;20391;-78
2021/07/17 00:24:11;;;;;;;45.43;31.50;;;;;;;15.64;86.63;96202.16;4980193;28;20211;-76
2021/07/17 00:26:37;;;;;;;46.87;32.63;;;;;;;15.74;85.91;96205.41;4984294;28;20192;-76
2021/07/17 00:29:02;;;;;;;49.43;33.40;;;;;;;15.73;85.97;96209.00;4994143;28;20204;-78
2021/07/17 00:31:27;;;;;;;45.53;32.40;;;;;;;15.74;85.74;96203.63;4996336;28;20218;-77
2021/07/17 00:33:53;;;;;;;43.97;30.13;;;;;;;15.85;85.51;96203.28;4996114;28;20234;-77
2021/07/17 00:36:18;;;;;;;48.73;32.57;;;;;;;15.78;85.48;96201.47;4994276;28;20276;-78
2021/07/17 00:38:44;;;;;;;48.80;31.45;;;;;;;15.81;85.33;96201.97;4996054;28;20229;-78
2021/07/17 00:41:09;;;;;;;48.22;31.30;;;;;;;15.82;85.56;96205.41;4996720;28;20180;-77
2021/07/17 00:43:34;;;;;;;45.83;31.70;;;;;;;15.76;85.36;96196.41;4996663;28;20215;-78
2021/07/17 00:46:00;;;;;;;49.00;33.65;;;;;;;15.83;85.58;96199.19;4993190;28;20193;-78
2021/07/17 00:48:25;;;;;;;55.00;35.38;;;;;;;15.77;85.73;96194.59;4995195;28;20216;-77
2021/07/17 00:50:51;;;;;;;50.17;33.55;;;;;;;15.82;85.65;96194.94;4996311;28;20251;-78
2021/07/17 00:53:16;;;;;;;51.90;33.65;;;;;;;15.81;85.63;96199.38;4998718;28;20290;-77
2021/07/17 00:55:45;;;;;;;49.35;32.95;;;;;;;15.82;85.30;96202.81;5006066;28;20516;-77
2021/07/17 00:58:13;;;;;;;50.75;32.65;;;;;;;15.83;84.97;96189.53;5004081;28;20342;-78
2021/07/17 01:00:38;;;;;;;48.55;31.52;;;;;;;15.84;85.21;96190.34;4995396;28;20205;-78
2021/07/17 01:03:06;;;;;;;51.92;35.35;;;;;;;15.73;85.46;96196.75;4994488;28;20203;-77
2021/07/17 01:05:32;;;;;;;50.65;34.28;;;;;;;15.73;85.11;96185.44;4979133;28;20180;-77
2021/07/17 01:07:58;;;;;;;51.78;33.45;;;;;;;15.70;85.51;96183.13;4994182;28;20261;-78
2021/07/17 01:10:24;;;;;;;52.15;34.03;;;;;;;15.76;85.76;96179.88;4995336;28;20172;-78
2021/07/17 01:12:49;;;;;;;50.47;33.87;;;;;;;15.76;85.31;96177.25;4994961;28;20665;-78
2021/07/17 01:15:15;;;;;;;49.08;32.45;;;;;;;15.76;85.74;96172.03;4995424;28;20179;-78
2021/07/17 01:17:41;;;;;;;49.33;32.20;;;;;;;15.82;85.23;96160.91;4995027;28;20828;-78
2021/07/17 01:20:13;;;;;;;53.72;33.88;;;;;;;15.78;85.38;96167.44;4989293;28;20192;-78
2021/07/17 01:22:39;;;;;;;47.20;34.30;;;;;;;15.72;85.71;96166.28;4979298;28;20184;-78
2021/07/17 01:25:11;;;;;;;48.50;31.73;;;;;;;15.69;85.80;96169.22;4996196;28;20199;-78
2021/07/17 01:27:36;;;;;;;51.80;33.00;;;;;;;15.69;85.84;96169.22;4996493;28;20180;-78
2021/07/17 01:30:07;;;;;;;49.15;34.00;;;;;;;15.65;86.14;96165.31;4994079;28;20214;-78
2021/07/17 01:32:33;;;;;;;53.67;34.75;;;;;;;15.61;86.04;96168.41;4994472;28;20194;-77
2021/07/17 01:34:58;;;;;;;57.40;35.60;;;;;;;15.54;86.32;96176.88;4995327;28;20187;-77
2021/07/17 01:37:24;;;;;;;51.08;35.83;;;;;;;15.58;86.65;96174.78;4995368;28;20175;-78
2021/07/17 01:39:49;;;;;;;52.47;33.42;;;;;;;15.64;86.14;96174.16;4977096;28;20188;-76
2021/07/17 01:42:14;;;;;;;53.78;35.58;;;;;;;15.55;86.34;96165.44;4977947;28;20215;-78
2021/07/17 01:44:44;;;;;;;52.22;35.15;;;;;;;15.58;86.39;96170.34;4995777;28;20901;-77
2021/07/17 01:47:11;;;;;;;53.03;35.97;;;;;;;15.56;86.36;96168.88;4978686;28;20261;-78
2021/07/17 01:49:36;;;;;;;54.13;34.28;;;;;;;15.58;86.51;96169.53;4993925;28;20207;-78
2021/07/17 01:52:02;;;;;;;49.35;33.60;;;;;;;15.64;86.36;96168.94;4977214;28;20191;-78
2021/07/17 01:54:32;;;;;;;49.75;34.67;;;;;;;15.58;86.09;96165.13;4994772;28;20195;-76
2021/07/17 01:56:57;;;;;;;53.53;34.53;;;;;;;15.58;86.73;96172.97;4994088;28;20168;-77
2021/07/17 01:59:23;;;;;;;63.35;35.45;;;;;;;15.49;87.07;96175.75;4995585;28;20179;-78
2021/07/17 02:01:48;;;;;;;54.93;34.70;;;;;;;15.46;87.28;96174.28;4992381;28;20291;-77
2021/07/17 02:04:13;;;;;;;54.10;37.13;;;;;;;15.36;87.34;96175.41;4993894;28;20675;-77
2021/07/17 02:06:39;;;;;;;56.97;34.78;;;;;;;15.01;89.23;96164.22;4994136;28;20686;-78
2021/07/17 02:09:04;;;;;;;55.13;35.95;;;;;;;14.90;90.58;96165.31;4993802;28;20200;-77
2021/07/17 02:11:29;;;;;;;56.38;36.63;;;;;;;14.95;90.61;96159.63;4992721;28;20211;-78
2021/07/17 02:13:54;;;;;;;53.00;35.97;;;;;;;15.21;89.06;96162.16;4994834;28;20266;-78
2021/07/17 02:16:21;;;;;;;52.50;35.70;;;;;;;15.26;88.82;96162.47;4994207;28;20663;-77
2021/07/17 02:18:47;;;;;;;56.47;35.57;;;;;;;15.35;88.34;96168.53;4978058;28;20266;-76
2021/07/17 02:21:13;;;;;;;58.93;36.00;;;;;;;15.34;87.98;96164.28;4994031;28;20199;-78
2021/07/17 02:23:39;;;;;;;56.67;37.47;;;;;;;15.26;88.57;96158.03;4976734;28;20200;-77
2021/07/17 02:26:05;;;;;;;57.55;38.03;;;;;;;15.30;88.23;96155.94;4994179;28;20279;-77
2021/07/17 02:28:30;;;;;;;60.65;36.40;;;;;;;15.36;88.00;96159.69;4994562;28;20234;-76
2021/07/17 02:30:56;;;;;;;55.65;36.38;;;;;;;15.14;88.38;96161.16;4994110;28;20180;-78
2021/07/17 02:33:21;;;;;;;55.97;35.67;;;;;;;14.92;90.61;96154.72;4992204;28;20574;-78
2021/07/17 02:35:47;;;;;;;57.27;35.60;;;;;;;14.97;91.02;96155.88;4977169;28;20183;-77
2021/07/17 02:38:13;;;;;;;54.07;36.03;;;;;;;14.87;91.04;96152.59;4994077;28;20524;-78
2021/07/17 02:40:38;;;;;;;58.40;36.07;;;;;;;14.87;91.08;96149.16;4993506;28;20230;-77
2021/07/17 02:43:04;;;;;;;59.00;37.67;;;;;;;14.99;90.69;96153.91;4977253;28;20208;-78
2021/07/17 02:45:29;;;;;;;58.87;37.47;;;;;;;15.29;88.54;96154.31;4992137;28;20200;-77
2021/07/17 02:47:54;;;;;;;62.88;38.08;;;;;;;15.39;88.13;96156.78;4977309;28;20236;-78
2021/07/17 02:50:21;;;;;;;55.17;34.80;;;;;;;15.41;88.07;96158.25;4994427;28;20183;-78
2021/07/17 02:52:46;;;;;;;56.17;36.15;;;;;;;15.38;87.96;96150.72;4993335;28;20246;-78
2021/07/17 02:55:12;;;;;;;58.03;37.70;;;;;;;15.35;88.15;96151.03;4993751;28;20230;-78
2021/07/17 02:57:37;;;;;;;60.08;38.17;;;;;;;15.45;87.63;96150.88;4993525;28;20176;-77
2021/07/17 03:00:06;;;;;;;60.22;37.90;;;;;;;15.34;87.89;96161.66;4993336;28;20176;-78
2021/07/17 03:02:31;;;;;;;65.72;41.65;;;;;;;15.28;88.28;96160.50;4994548;28;20193;-77
2021/07/17 03:04:57;;;;;;;64.80;40.03;;;;;;;15.30;88.10;96154.16;4992372;28;20199;-78
2021/07/17 03:07:22;;;;;;;61.03;40.30;;;;;;;15.21;88.54;96146.44;4994543;28;20191;-78
2021/07/17 03:09:47;;;;;;;67.43;40.07;;;;;;;15.28;88.54;96144.78;4993417;28;20219;-77
2021/07/17 03:12:12;;;;;;;63.20;38.35;;;;;;;15.28;88.81;96155.25;4994199;28;20227;-78
2021/07/17 03:14:38;;;;;;;58.25;38.50;;;;;;;15.33;88.16;96150.38;4993104;28;20195;-77
2021/07/17 03:17:03;;;;;;;69.88;40.38;;;;;;;15.12;89.18;96153.47;4973303;28;20675;-78
2021/07/17 03:19:29;;;;;;;66.00;40.90;;;;;;;15.17;88.87;96163.44;4993408;28;20619;-78
2021/07/17 03:21:54;;;;;;;69.10;40.80;;;;;;;15.08;89.36;96161.78;4994086;28;20214;-77
2021/07/17 03:24:20;;;;;;;67.25;40.45;;;;;;;15.15;89.10;96163.59;4977044;28;20208;-77
2021/07/17 03:26:45;;;;;;;74.57;42.33;;;;;;;15.08;89.60;96167.81;4992212;28;20187;-78
2021/07/17 03:29:10;;;;;;;65.67;41.73;;;;;;;15.07;89.65;96160.97;4976152;28;20208;-77
2021/07/17 03:31:36;;;;;;;66.60;41.33;;;;;;;14.92;90.60;96163.38;4992647;28;20187;-78
2021/07/17 03:34:01;;;;;;;60.23;39.87;;;;;;;15.01;90.23;96154.56;4992661;28;20691;-78
2021/07/17 03:36:27;;;;;;;63.63;39.93;;;;;;;15.06;90.06;96148.06;4976356;28;20191;-78
2021/07/17 03:38:52;;;;;;;63.20;39.40;;;;;;;15.13;89.65;96154.28;4991492;28;20188;-76
2021/07/17 03:41:18;;;;;;;64.47;37.43;;;;;;;15.14;89.48;96156.72;4994256;28;20327;-78
2021/07/17 03:43:44;;;;;;;55.53;38.03;;;;;;;15.11;89.49;96154.44;4993708;28;20212;-78
2021/07/17 03:46:09;;;;;;;61.30;37.70;;;;;;;15.12;89.71;96155.25;4992815;28;20616;-77
2021/07/17 03:48:35;;;;;;;60.00;38.20;;;;;;;15.08;89.82;96156.53;4995459;28;20711;-76
2021/07/17 03:51:00;;;;;;;61.30;39.17;;;;;;;15.16;89.44;96153.94;4996863;28;20668;-78
2021/07/17 03:53:27;;;;;;;59.40;38.25;;;;;;;15.09;89.32;96155.56;4996645;28;20199;-78
2021/07/17 03:55:52;;;;;;;61.08;37.60;;;;;;;15.13;89.56;96164.75;4980402;28;20182;-77
2021/07/17 03:58:17;;;;;;;62.17;38.83;;;;;;;15.15;89.28;96165.41;4996547;28;20180;-78
2021/07/17 04:00:43;;;;;;;58.25;37.38;;;;;;;15.09;89.83;96158.19;4996443;28;20262;-78
2021/07/17 04:03:08;;;;;;;59.47;37.50;;;;;;;15.09;89.79;96163.41;4976469;28;20203;-77
2021/07/17 04:05:33;;;;;;;57.78;36.08;;;;;;;15.10;89.57;96159.81;4960685;28;20227;-78
2021/07/17 04:07:59;;;;;;;59.90;39.13;;;;;;;15.06;89.83;96163.75;4976798;28;20635;-78
2021/07/17 04:10:24;;;;;;;62.67;36.87;;;;;;;15.09;90.01;96160.78;4973494;28;20245;-78
2021/07/17 04:12:49;;;;;;;63.13;37.53;;;;;;;15.12;89.77;96165.72;4997572;28;20211;-77
2021/07/17 04:15:15;;;;;;;61.05;37.78;;;;;;;15.11;89.66;96170.16;4980210;28;20184;-78
2021/07/17 04:17:40;;;;;;;61.05;37.35;;;;;;;15.12;89.75;96168.34;4996056;28;20183;-78
2021/07/17 04:20:07;;;;;;;50.25;34.67;;;;;;;15.23;89.49;96171.47;4995462;28;20220;-77
2021/07/17 04:22:33;;;;;;;60.27;39.00;;;;;;;15.14;89.61;96169.00;4997016;28;20180;-77
2021/07/17 04:24:59;;;;;;;76.03;36.97;;;;;;;14.96;89.94;96172.53;4980334;28;20187;-78
2021/07/17 04:27:24;;;;;;;62.90;38.50;;;;;;;15.03;90.00;96175.34;4996446;28;20191;-78
2021/07/17 04:29:49;;;;;;;55.57;36.73;;;;;;;15.08;90.25;96178.28;4996008;28;20216;-78
2021/07/17 04:32:15;;;;;;;59.90;37.17;;;;;;;15.11;89.69;96174.56;4994277;28;20509;-79
2021/07/17 04:34:41;;;;;;;54.55;37.65;;;;;;;15.14;89.78;96182.88;4997227;28;20203;-77
2021/07/17 04:37:06;;;;;;;57.03;35.92;;;;;;;15.11;89.83;96172.75;4996977;28;20190;-77
2021/07/17 04:39:31;;;;;;;51.83;36.33;;;;;;;15.16;89.75;96180.09;4995721;28;20180;-78
2021/07/17 04:41:57;;;;;;;58.75;35.70;;;;;;;15.14;90.00;96188.13;4995131;28;20653;-77
2021/07/17 04:44:22;;;;;;;51.58;34.80;;;;;;;15.14;89.59;96187.31;4996017;28;20246;-78
2021/07/17 04:46:47;;;;;;;55.23;34.97;;;;;;;15.10;90.03;96181.56;4996072;28;20192;-77
2021/07/17 04:49:12;;;;;;;51.03;35.43;;;;;;;15.09;89.73;96179.94;4996662;28;20295;-76
2021/07/17 04:51:38;;;;;;;57.10;36.77;;;;;;;15.10;90.27;96180.75;4995395;28;20267;-78
2021/07/17 04:54:03;;;;;;;54.80;36.10;;;;;;;15.08;90.22;96193.16;4995343;28;20204;-78
2021/07/17 04:56:28;;;;;;;59.13;36.30;;;;;;;15.13;90.05;96186.50;4996186;28;20250;-77
2021/07/17 04:58:54;;;;;;;56.97;37.47;;;;;;;15.04;90.16;96184.00;4996102;28;20677;-78
2021/07/17 05:01:19;;;;;;;66.20;39.38;;;;;;;14.97;90.62;96192.50;4995967;28;20188;-76
2021/07/17 05:03:44;;;;;;;62.55;38.28;;;;;;;15.01;90.14;96193.78;4994672;28;20215;-78
2021/07/17 05:06:10;;;;;;;54.20;37.30;;;;;;;15.11;90.41;96195.47;4979419;28;20191;-78
2021/07/17 05:08:35;;;;;;;58.60;38.10;;;;;;;15.13;89.96;96189.09;4995639;28;20231;-77
2021/07/17 05:11:00;;;;;;;56.30;39.80;;;;;;;15.14;90.10;96195.16;4996164;28;20180;-78
2021/07/17 05:13:26;;;;;;;59.67;36.77;;;;;;;15.14;90.10;96197.78;4995007;28;20210;-78
2021/07/17 05:15:51;;;;;;;53.47;36.47;;;;;;;15.12;90.12;96186.66;5011682;28;20179;-78
2021/07/17 05:18:16;;;;;;;60.83;37.73;;;;;;;15.11;90.03;96190.25;4996558;28;20180;-78
2021/07/17 05:20:43;;;;;;;57.23;38.60;;;;;;;15.13;89.94;96186.50;4995461;28;20185;-78
2021/07/17 05:23:09;;;;;;;59.80;37.63;;;;;;;15.20;89.94;96184.06;4995217;28;20208;-78
2021/07/17 05:25:35;;;;;;;57.90;37.63;;;;;;;15.25;89.99;96184.38;4986157;28;20187;-78
2021/07/17 05:28:00;;;;;;;58.80;36.55;;;;;;;15.22;89.72;96189.94;4995032;28;20234;-78
2021/07/17 05:30:25;;;;;;;55.00;37.77;;;;;;;15.22;89.78;96196.00;4978158;28;20195;-77
2021/07/17 05:32:51;;;;;;;94.43;37.10;;;;;;;15.15;89.94;96184.53;4994666;28;20263;-78
2021/07/17 05:35:16;;;;;;;52.55;36.42;;;;;;;15.27;89.84;96190.25;4993767;28;20250;-77
2021/07/17 05:37:41;;;;;;;57.20;37.07;;;;;;;15.24;89.79;96194.03;4992742;28;20231;-77
2021/07/17 05:40:07;;;;;;;49.72;35.38;;;;;;;15.31;89.34;96188.97;4992941;28;20184;-77
2021/07/17 05:42:33;;;;;;;54.70;35.08;;;;;;;15.40;89.40;96193.25;4992193;28;20210;-77
2021/07/17 05:44:58;;;;;;;48.23;35.27;;;;;;;15.35;89.13;96184.22;4991566;28;20283;-77
2021/07/17 05:47:24;;;;;;;52.97;35.80;;;;;;;15.38;89.14;96181.31;4975988;28;20219;-77
2021/07/17 05:49:49;;;;;;;52.47;36.90;;;;;;;15.39;89.18;96180.31;4992765;28;20247;-78
2021/07/17 05:52:14;;;;;;;52.97;36.78;;;;;;;15.37;88.73;96183.09;4992311;28;20179;-77
2021/07/17 05:54:40;;;;;;;52.65;36.00;;;;;;;15.40;88.84;96188.00;4992755;28;20200;-77
2021/07/17 05:57:06;;;;;;;56.55;35.72;;;;;;;15.50;88.76;96185.22;4991552;28;20187;-78
2021/07/17 05:59:31;;;;;;;57.15;37.45;;;;;;;15.55;88.45;96194.25;4991947;28;20547;-77
2021/07/17 06:01:57;;;;;;;50.15;35.85;;;;;;;15.56;88.10;96195.88;4992540;28;20190;-78
2021/07/17 06:04:22;;;;;;;49.00;34.10;;;;;;;15.55;88.02;96191.63;4993275;28;20489;-78
2021/07/17 06:06:47;;;;;;;55.80;38.03;;;;;;;15.58;88.20;96191.28;4990853;28;20577;-77
2021/07/17 06:09:13;;;;;;;51.25;36.92;;;;;;;15.59;87.66;96192.13;4974643;28;20676;-76
2021/07/17 06:11:38;;;;;;;56.67;35.72;;;;;;;15.58;88.37;96190.47;4989950;28;20180;-78
2021/07/17 06:14:03;;;;;;;58.90;38.83;;;;;;;15.42;88.77;96193.06;4993900;28;20207;-79
2021/07/17 06:16:28;;;;;;;55.35;36.92;;;;;;;15.62;88.44;96196.22;4994404;28;20262;-77
2021/07/17 06:18:54;;;;;;;55.67;37.42;;;;;;;15.75;88.15;96188.72;4991266;28;20670;-79
2021/07/17 06:21:19;;;;;;;62.03;38.22;;;;;;;15.70;87.70;96193.63;4992990;28;20566;-78
2021/07/17 06:23:44;;;;;;;52.67;36.00;;;;;;;15.65;87.43;96196.75;4976690;28;20204;-77
2021/07/17 06:26:10;;;;;;;62.45;38.45;;;;;;;15.67;87.72;96191.34;4995282;28;20187;-79
2021/07/17 06:28:36;;;;;;;55.75;34.95;;;;;;;15.88;87.42;96199.50;4992435;28;20207;-78
2021/07/17 06:31:01;;;;;;;60.30;37.28;;;;;;;15.89;86.97;96203.75;4992420;28;20546;-77
2021/07/17 06:33:27;;;;;;;58.85;37.47;;;;;;;15.87;86.26;96205.72;4993575;28;20211;-78
2021/07/17 06:35:52;;;;;;;54.65;36.70;;;;;;;15.90;86.56;96205.38;4992336;28;20256;-77
2021/07/17 06:38:17;;;;;;;50.75;35.53;;;;;;;15.98;86.20;96204.56;4991019;28;20183;-77
2021/07/17 06:40:42;;;;;;;54.60;38.15;;;;;;;15.98;86.49;96207.19;4991025;28;20191;-78
2021/07/17 06:43:08;;;;;;;56.45;37.85;;;;;;;16.03;86.02;96210.97;4991504;28;20283;-77
2021/07/17 06:45:33;;;;;;;54.42;37.28;;;;;;;15.93;85.90;96220.78;4991884;28;20227;-77
2021/07/17 06:47:58;;;;;;;58.58;38.05;;;;;;;15.90;86.44;96215.03;4991865;28;20195;-78
2021/07/17 06:50:24;;;;;;;58.22;37.90;;;;;;;15.94;86.17;96222.44;5006311;28;20213;-77
2021/07/17 06:52:50;;;;;;;55.63;34.83;;;;;;;15.99;85.86;96230.63;4991132;28;20306;-77
2021/07/17 06:55:15;;;;;;;65.28;37.67;;;;;;;15.97;86.37;96234.38;4993197;28;20176;-77
2021/07/17 06:57:42;;;;;;;52.40;35.45;;;;;;;16.02;86.13;96230.28;4992704;28;20176;-77
2021/07/17 07:00:10;;;;;;;49.95;35.53;;;;;;;16.10;85.82;96227.66;4984954;28;20226;-77
2021/07/17 07:02:35;;;;;;;54.60;34.40;;;;;;;15.97;85.93;96235.19;4991327;28;20184;-77
2021/07/17 07:05:01;;;;;;;53.80;35.60;;;;;;;16.03;85.66;96231.91;4991576;28;20178;-77
2021/07/17 07:07:26;;;;;;;52.28;35.53;;;;;;;16.03;86.19;96239.78;4975281;28;20191;-76
2021/07/17 07:09:51;;;;;;;53.67;33.53;;;;;;;16.05;86.27;96240.41;4991612;28;20302;-77
2021/07/17 07:12:17;;;;;;;53.92;35.75;;;;;;;16.02;85.84;96242.56;4979272;28;20184;-76
2021/07/17 07:14:43;;;;;;;57.88;37.30;;;;;;;16.22;85.34;96235.19;4987157;28;20204;-76
2021/07/17 07:17:08;;;;;;;48.17;34.28;;;;;;;16.21;85.30;96236.97;4991075;28;20186;-76
2021/07/17 07:19:33;;;;;;;56.53;33.65;;;;;;;16.01;85.30;96233.88;4973083;28;20176;-78
2021/07/17 07:21:59;;;;;;;42.60;32.67;;;;;;;16.23;85.23;96236.81;4970203;28;20185;-75
2021/07/17 07:24:24;;;;;;;51.75;34.55;;;;;;;16.33;84.72;96233.03;4969635;28;20577;-76
2021/07/17 07:26:49;;;;;;;52.75;34.63;;;;;;;16.29;84.71;96234.34;4936342;29;20637;-77
2021/07/17 07:29:15;;;;;;;40.83;31.10;;;;;;;16.49;84.43;96223.50;4952076;29;20213;-76
2021/07/17 07:31:40;;;;;;;49.15;30.55;;;;;;;16.62;83.40;96227.25;4955385;28;20685;-77
2021/07/17 07:34:05;;;;;;;49.17;33.97;;;;;;;16.59;83.23;96229.38;4965485;28;20204;-76
2021/07/17 07:36:31;;;;;;;49.33;32.28;;;;;;;16.57;83.85;96229.53;4992096;28;20191;-76
2021/07/17 07:38:56;;;;;;;41.88;30.70;;;;;;;16.64;83.38;96225.25;4991668;28;20182;-76
2021/07/17 07:41:21;;;;;;;49.05;30.80;;;;;;;16.74;83.23;96229.53;4990860;28;20172;-76
2021/07/17 07:43:46;;;;;;;46.20;30.25;;;;;;;16.80;83.16;96234.09;4976086;28;20219;-77
2021/07/17 07:46:13;;;;;;;41.40;29.13;;;;;;;16.89;81.96;96228.66;4967125;28;20183;-76
2021/07/17 07:48:41;;;;;;;38.78;28.08;;;;;;;16.82;82.11;96237.38;4991879;28;20191;-77
2021/07/17 07:51:06;;;;;;;44.78;29.88;;;;;;;16.87;82.29;96237.66;4975721;28;20718;-77
2021/07/17 07:53:31;;;;;;;44.65;30.65;;;;;;;16.65;82.72;96239.19;4982861;28;20216;-76
2021/07/17 07:55:57;;;;;;;46.22;28.65;;;;;;;16.57;82.92;96240.03;4980800;28;20219;-78
2021/07/17 07:58:22;;;;;;;43.47;30.13;;;;;;;16.57;83.38;96241.84;4972714;28;20536;-77
2021/07/17 08:00:47;;;;;;;48.30;30.98;;;;;;;16.29;85.05;96238.78;4956747;28;20192;-76
2021/07/17 08:03:13;;;;;;;46.28;29.63;;;;;;;16.43;84.04;96233.69;4971422;28;20200;-75
2021/07/17 08:05:38;;;;;;;41.30;29.25;;;;;;;16.64;84.06;96243.63;4976856;28;20216;-75
2021/07/17 08:08:03;;;;;;;40.83;29.00;;;;;;;16.67;83.82;96245.06;4953067;28;20291;-76
2021/07/17 08:10:29;;;;;;;44.63;29.67;;;;;;;16.42;84.39;96246.94;4935684;28;20634;-78
2021/07/17 08:12:54;;;;;;;41.92;28.40;;;;;;;16.59;83.15;96253.78;4937507;28;20232;-76
2021/07/17 08:15:19;;;;;;;41.17;26.70;;;;;;;16.57;83.61;96249.69;4959359;28;20619;-77
2021/07/17 08:17:45;;;;;;;38.78;27.95;;;;;;;16.75;83.80;96252.97;4967835;28;20180;-77
2021/07/17 08:20:11;;;;;;;37.20;27.88;;;;;;;16.79;82.46;96251.66;4939496;28;20229;-77
2021/07/17 08:22:37;;;;;;;40.72;27.02;;;;;;;16.96;82.61;96245.34;4949173;29;20204;-78
2021/07/17 08:25:04;;;;;;;31.17;25.40;;;;;;;17.13;82.27;96255.75;4957811;28;20559;-76
2021/07/17 08:27:29;;;;;;;35.60;24.58;;;;;;;17.38;81.06;96253.84;4979730;28;20723;-77
2021/07/17 08:29:55;;;;;;;34.60;25.30;;;;;;;17.15;81.99;96248.56;4966262;28;20223;-76
2021/07/17 08:32:20;;;;;;;34.38;24.58;;;;;;;17.30;80.71;96246.81;4966810;28;20174;-77
2021/07/17 08:34:50;;;;;;;34.58;24.38;;;;;;;17.33;81.41;96250.94;4937295;29;20668;-77
2021/07/17 08:37:15;;;;;;;41.20;25.05;;;;;;;17.41;79.81;96254.34;4977911;28;20268;-77
2021/07/17 08:39:40;;;;;;;36.85;25.13;;;;;;;17.46;79.89;96252.00;4980173;28;20338;-77
2021/07/17 08:42:06;;;;;;;35.03;24.40;;;;;;;17.41;80.22;96251.69;4984705;28;20180;-77
2021/07/17 08:44:31;;;;;;;30.42;23.52;;;;;;;17.51;79.92;96260.19;4992070;28;20222;-76
2021/07/17 08:46:57;;;;;;;32.38;22.23;;;;;;;17.66;79.09;96252.34;4978694;28;20255;-76
2021/07/17 08:49:23;;;;;;;30.13;22.25;;;;;;;17.90;78.73;96253.22;4964804;28;20282;-77
2021/07/17 08:51:51;;;;;;;30.25;23.08;;;;;;;18.17;77.23;96255.28;4953211;29;20177;-77
2021/07/17 08:54:17;;;;;;;27.52;21.75;;;;;;;18.40;76.56;96244.75;4988742;28;20744;-77
2021/07/17 08:56:42;;;;;;;27.70;22.52;;;;;;;18.46;76.18;96241.38;4969730;28;20197;-78
2021/07/17 08:59:08;;;;;;;33.30;21.48;;;;;;;18.50;75.05;96252.38;4983634;28;20285;-77
2021/07/17 09:01:34;;;;;;;32.40;21.50;;;;;;;18.66;74.52;96249.59;4972882;28;20183;-77
2021/07/17 09:03:59;;;;;;;31.67;21.20;;;;;;;18.93;74.55;96246.34;4974571;28;20255;-78
2021/07/17 09:06:24;;;;;;;28.60;21.02;;;;;;;18.95;74.60;96252.22;4974430;28;20177;-77
2021/07/17 09:08:51;;;;;;;31.67;22.60;;;;;;;18.66;74.83;96254.88;4981329;28;20290;-77
2021/07/17 09:11:17;;;;;;;27.55;21.35;;;;;;;18.66;73.77;96253.06;4974477;28;20184;-77
2021/07/17 09:13:42;;;;;;;28.15;20.33;;;;;;;18.85;73.89;96256.97;4941449;29;20633;-76
2021/07/17 09:16:12;;;;;;;27.95;21.13;;;;;;;18.84;73.21;96260.59;4938806;29;20188;-77
2021/07/17 09:18:48;;;;;;;27.23;20.75;;;;;;;18.77;74.27;96264.94;4958397;28;20267;-78
2021/07/17 09:21:34;;;;;;;26.90;19.92;;;;;;;18.87;74.16;96259.41;4984447;28;20778;-78
2021/07/17 09:24:01;;;;;;;29.23;21.58;;;;;;;18.73;74.29;96247.91;4993277;28;20200;-77
2021/07/17 09:26:31;;;;;;;25.38;20.63;;;;;;;18.53;74.71;96252.81;4993981;28;20618;-78
2021/07/17 09:29:06;;;;;;;24.50;21.77;;;;;;;18.31;75.42;96256.34;4957503;28;20307;-75
2021/07/17 09:31:34;;;;;;;31.98;22.65;;;;;;;17.95;76.04;96254.31;4957453;28;20223;-77
2021/07/17 09:34:10;;;;;;;26.42;20.75;;;;;;;18.12;75.92;96255.03;4963431;28;20702;-77
2021/07/17 09:36:56;;;;;;;28.83;22.58;;;;;;;17.89;76.80;96246.31;4947390;28;20275;-76
2021/07/17 09:39:26;;;;;;;27.55;21.52;;;;;;;18.06;76.52;96242.56;4966346;28;20315;-76
2021/07/17 09:41:59;;;;;;;30.08;23.60;;;;;;;18.16;76.72;96244.97;4980740;28;20238;-76
2021/07/17 09:44:26;;;;;;;26.83;22.33;;;;;;;18.16;76.37;96247.59;4992881;28;20192;-77
2021/07/17 09:46:51;;;;;;;26.00;22.45;;;;;;;17.88;76.55;96245.50;4976848;28;20230;-77
2021/07/17 09:49:18;;;;;;;35.25;23.83;;;;;;;17.86;76.62;96251.94;4994041;28;20681;-77
2021/07/17 09:51:43;;;;;;;26.70;20.73;;;;;;;17.97;76.49;96246.25;4983790;28;20223;-77
2021/07/17 09:54:09;;;;;;;25.23;22.08;;;;;;;18.10;76.18;96249.09;4984814;28;20239;-78
2021/07/17 09:56:36;;;;;;;29.08;22.00;;;;;;;18.27;75.92;96240.06;4976671;28;20267;-77
2021/07/17 09:59:03;;;;;;;26.90;21.65;;;;;;;18.52;75.67;96237.22;4992584;28;20175;-77
2021/07/17 10:01:37;;;;;;;28.05;22.70;;;;;;;18.64;75.05;96239.25;4982036;28;20185;-77
2021/07/17 10:04:07;;;;;;;29.15;20.38;;;;;;;18.78;74.84;96240.25;4997238;28;20676;-79
2021/07/17 10:06:40;;;;;;;29.17;22.08;;;;;;;18.73;74.01;96231.25;4957041;28;20183;-77
2021/07/17 10:09:12;;;;;;;30.65;22.50;;;;;;;18.79;73.38;96228.72;4973683;28;20207;-78
2021/07/17 10:11:39;;;;;;;25.67;19.60;;;;;;;18.92;72.05;96218.41;4972040;28;20279;-77
2021/07/17 10:14:43;;;;;;;24.58;19.13;;;;;;;18.91;72.63;96218.59;4982936;28;20200;-77
2021/07/17 10:17:10;;;;;;;21.33;18.30;;;;;;;18.83;72.49;96224.75;4917461;29;20280;-77
2021/07/17 10:19:37;;;;;;;23.85;18.55;;;;;;;19.05;72.68;96227.44;4918032;29;20178;-79
2021/07/17 10:22:02;;;;;;;22.60;20.15;;;;;;;19.10;72.09;96225.09;4915345;29;20725;-77
2021/07/17 10:24:28;;;;;;;22.42;18.60;;;;;;;19.22;72.21;96226.22;4922290;29;20298;-77
2021/07/17 10:26:54;;;;;;;22.10;18.60;;;;;;;19.34;71.21;96227.38;4914682;29;20276;-78
2021/07/17 10:29:20;;;;;;;23.92;19.13;;;;;;;19.29;70.77;96227.13;4917702;29;20221;-79
2021/07/17 10:31:47;;;;;;;23.20;19.13;;;;;;;19.32;70.74;96225.94;4933515;29;20213;-78
2021/07/17 10:34:12;;;;;;;26.63;18.35;;;;;;;19.40;70.24;96217.94;4921920;29;20220;-78
2021/07/17 10:36:54;;;;;;;31.05;19.75;;;;;;;19.44;70.63;96221.84;4907224;29;20272;-78
2021/07/17 10:39:42;;;;;;;23.70;19.25;;;;;;;19.61;71.06;96217.16;4896141;29;20191;-78
2021/07/17 10:42:19;;;;;;;22.48;18.23;;;;;;;20.10;69.05;96217.22;4879909;29;20758;-78
2021/07/17 10:44:47;;;;;;;21.52;17.80;;;;;;;20.33;67.69;96215.16;4913159;29;20272;-78
2021/07/17 10:47:13;;;;;;;31.98;21.02;;;;;;;19.94;68.05;96213.03;4939819;28;20632;-77
2021/07/17 10:49:50;;;;;;;22.95;18.42;;;;;;;19.91;69.10;96213.41;4991811;28;20262;-78
2021/07/17 10:52:33;;;;;;;24.17;20.58;;;;;;;19.18;70.29;96206.56;4975504;28;20594;-78
2021/07/17 10:55:24;;;;;;;23.80;19.50;;;;;;;19.58;69.94;96202.56;4983653;28;20181;-78
2021/07/17 10:57:49;;;;;;;27.85;20.63;;;;;;;19.46;70.36;96199.56;4983579;28;20176;-77
2021/07/17 11:00:50;;;;;;;25.05;20.75;;;;;;;19.33;70.44;96198.59;4991687;28;20543;-77
2021/07/17 11:03:24;;;;;;;24.73;20.15;;;;;;;19.31;71.09;96201.44;4975335;28;20265;-78
2021/07/17 11:05:50;;;;;;;28.27;22.15;;;;;;;18.89;72.74;96202.13;4980523;28;20259;-76
2021/07/17 11:08:32;;;;;;;27.05;22.83;;;;;;;18.92;72.17;96205.22;4964248;28;20567;-77
2021/07/17 11:10:58;;;;;;;26.65;22.38;;;;;;;18.79;73.29;96205.06;4973421;28;20714;-75
2021/07/17 11:13:35;;;;;;;28.17;22.52;;;;;;;18.81;73.80;96199.59;4971987;28;20204;-77
2021/07/17 11:16:01;;;;;;;27.45;22.90;;;;;;;18.66;73.91;96210.16;4972475;28;20184;-77